Time;durP1;ratioP1;P1;durP2;ratioP2;P2;SDS_P1;SDS_P2;PMS_P1;PMS_P2;Temp;Humidity;BMP_temperature;BMP_pressure;BME280_temperature;BME280_humidity;BME280_pressure;Samples;Min_cycle;Max_cycle;Signal;HPM_P1;HPM_P2
2023/05/24 00:00:43;;;;;;;41.10;14.57;;;;;;;10.45;100.00;101849.34;4956452;28;20491;-43
2023/05/24 00:03:14;;;;;;;41.83;15.73;;;;;;;10.47;100.00;101851.88;4956754;29;20861;-43
2023/05/24 00:05:42;;;;;;;35.93;15.90;;;;;;;10.48;100.00;101851.69;4956991;29;20482;-46
2023/05/24 00:08:10;;;;;;;41.00;16.50;;;;;;;10.47;100.00;101852.72;4956828;29;20439;-44
2023/05/24 00:10:38;;;;;;;43.87;16.93;;;;;;;10.48;100.00;101851.69;4956354;28;20822;-44
2023/05/24 00:13:05;;;;;;;33.40;15.43;;;;;;;10.44;100.00;101854.88;4956563;29;20435;-42
2023/05/24 00:15:33;;;;;;;35.60;14.70;;;;;;;10.41;100.00;101849.88;4956562;29;20957;-42
2023/05/24 00:18:01;;;;;;;44.07;17.70;;;;;;;10.38;100.00;101845.72;4956527;29;20506;-44
2023/05/24 00:20:30;;;;;;;32.87;15.33;;;;;;;10.46;100.00;101844.84;4956236;28;20462;-43
2023/05/24 00:22:58;;;;;;;34.33;14.90;;;;;;;10.42;100.00;101847.03;4956405;28;20440;-43
2023/05/24 00:25:25;;;;;;;37.73;16.07;;;;;;;10.43;100.00;101843.38;4956533;29;20486;-44
2023/05/24 00:27:53;;;;;;;43.07;16.73;;;;;;;10.46;100.00;101844.84;4955679;29;20515;-46
2023/05/24 00:30:21;;;;;;;32.60;15.03;;;;;;;10.49;100.00;101849.84;4917778;29;20524;-43
2023/05/24 00:32:48;;;;;;;41.37;15.40;;;;;;;10.43;100.00;101847.88;4918090;29;20520;-45
2023/05/24 00:35:16;;;;;;;35.67;16.00;;;;;;;10.38;100.00;101836.88;4918230;29;20823;-42
2023/05/24 00:37:46;;;;;;;38.40;14.47;;;;;;;10.39;100.00;101842.03;4918239;29;20517;-45
2023/05/24 00:40:14;;;;;;;42.33;16.30;;;;;;;10.40;100.00;101838.38;4917707;29;20421;-44
2023/05/24 00:42:42;;;;;;;32.60;15.87;;;;;;;10.35;100.00;101837.22;4917816;29;20440;-42
2023/05/24 00:45:10;;;;;;;36.33;15.63;;;;;;;10.36;100.00;101850.38;4918162;29;20459;-43
2023/05/24 00:47:38;;;;;;;37.30;14.63;;;;;;;10.30;100.00;101839.56;4917068;29;20434;-42
2023/05/24 00:50:08;;;;;;;46.90;17.17;;;;;;;10.36;100.00;101845.03;4917661;29;20442;-46
2023/05/24 00:52:36;;;;;;;43.97;15.23;;;;;;;10.35;100.00;101837.22;4917701;29;20477;-43
2023/05/24 00:55:07;;;;;;;46.33;16.10;;;;;;;10.38;100.00;101850.22;4917647;29;20469;-43
2023/05/24 00:57:36;;;;;;;39.70;16.83;;;;;;;10.31;100.00;101842.06;4918212;29;20469;-42
2023/05/24 01:00:06;;;;;;;36.83;14.60;;;;;;;10.38;100.00;101839.53;4917521;29;20890;-45
2023/05/24 01:02:34;;;;;;;37.90;15.23;;;;;;;10.35;100.00;101845.22;4917652;29;20517;-44
2023/05/24 01:05:03;;;;;;;36.47;14.73;;;;;;;10.32;100.00;101841.06;4917489;29;20470;-47
2023/05/24 01:07:39;;;;;;;41.50;15.50;;;;;;;10.30;100.00;101842.22;4917536;29;20441;-48
2023/05/24 01:10:16;;;;;;;33.00;14.50;;;;;;;10.35;100.00;101850.56;4917345;29;20525;-42
2023/05/24 01:12:56;;;;;;;34.40;15.70;;;;;;;10.25;100.00;101848.06;4917291;29;20481;-43
2023/05/24 01:15:28;;;;;;;33.70;14.10;;;;;;;10.31;100.00;101850.06;4917675;29;20877;-43
2023/05/24 01:18:03;;;;;;;34.10;13.63;;;;;;;10.22;100.00;101850.22;4917404;29;20516;-42
2023/05/24 01:20:36;;;;;;;37.53;15.90;;;;;;;10.23;100.00;101847.41;4914563;29;20471;-44
2023/05/24 01:23:18;;;;;;;35.43;16.13;;;;;;;10.20;100.00;101844.22;4917338;29;20425;-44
2023/05/24 01:26:03;;;;;;;40.00;14.60;;;;;;;10.21;100.00;101849.41;4917789;29;20537;-44
2023/05/24 01:28:34;;;;;;;36.30;15.20;;;;;;;10.25;100.00;101839.22;4955529;29;20503;-46
2023/05/24 01:31:02;;;;;;;35.67;15.00;;;;;;;10.21;100.00;101837.91;4954561;28;20829;-44
2023/05/24 01:33:30;;;;;;;34.63;14.80;;;;;;;10.24;100.00;101842.91;4955193;29;20489;-47
2023/05/24 01:35:57;;;;;;;38.63;14.67;;;;;;;10.26;100.00;101836.41;4955302;29;20436;-46
2023/05/24 01:38:25;;;;;;;32.23;14.00;;;;;;;10.33;100.00;101837.41;4955248;29;20499;-48
2023/05/24 01:41:01;;;;;;;32.30;15.30;;;;;;;10.33;100.00;101840.06;4954659;28;20499;-43
2023/05/24 01:43:37;;;;;;;26.83;13.60;;;;;;;10.33;100.00;101840.06;4955045;29;20455;-42
2023/05/24 01:46:12;;;;;;;42.67;14.53;;;;;;;10.31;100.00;101844.72;4955330;29;20411;-43
2023/05/24 01:48:54;;;;;;;40.00;15.07;;;;;;;10.34;100.00;101836.38;4955043;29;21193;-45
2023/05/24 01:51:24;;;;;;;36.47;14.77;;;;;;;10.36;100.00;101833.56;4954040;28;20554;-43
2023/05/24 01:53:53;;;;;;;31.93;14.10;;;;;;;10.24;100.00;101837.56;4955029;29;20483;-43
2023/05/24 01:56:21;;;;;;;40.50;15.00;;;;;;;10.23;100.00;101842.06;4954915;28;20965;-44
2023/05/24 01:58:52;;;;;;;33.30;15.70;;;;;;;10.26;100.00;101841.72;4954658;28;20440;-43
2023/05/24 02:01:20;;;;;;;34.17;14.60;;;;;;;10.20;100.00;101834.41;4954459;28;20486;-42
2023/05/24 02:03:49;;;;;;;32.33;15.27;;;;;;;10.27;100.00;101839.91;4954220;29;20497;-42
2023/05/24 02:06:17;;;;;;;31.23;15.10;;;;;;;10.30;100.00;101843.06;4954853;29;20527;-42
2023/05/24 02:08:46;;;;;;;39.00;14.00;;;;;;;10.33;100.00;101842.75;4954607;28;20444;-42
2023/05/24 02:11:14;;;;;;;38.27;14.63;;;;;;;10.29;100.00;101836.06;4953947;28;20467;-43
2023/05/24 02:13:41;;;;;;;46.73;15.33;;;;;;;10.31;100.00;101842.06;4954516;29;20483;-41
2023/05/24 02:16:10;;;;;;;35.47;15.20;;;;;;;10.24;100.00;101837.56;4954396;29;20842;-43
2023/05/24 02:18:39;;;;;;;38.13;15.07;;;;;;;10.25;100.00;101834.72;4954680;29;20490;-43
2023/05/24 02:21:06;;;;;;;32.87;14.73;;;;;;;10.24;100.00;101838.41;4954080;28;20478;-44
2023/05/24 02:23:35;;;;;;;38.23;15.03;;;;;;;10.21;100.00;101835.25;4954452;28;20822;-43
2023/05/24 02:26:02;;;;;;;36.80;15.47;;;;;;;10.20;100.00;101834.41;4954317;29;21040;-42
2023/05/24 02:28:31;;;;;;;50.97;16.80;;;;;;;10.22;100.00;101835.06;4954336;29;20516;-42
2023/05/24 02:30:58;;;;;;;45.07;17.90;;;;;;;10.26;100.00;101846.22;4953668;28;20471;-44
2023/05/24 02:33:29;;;;;;;39.40;14.27;;;;;;;10.22;100.00;101848.38;4954236;29;21041;-45
2023/05/24 02:35:56;;;;;;;45.07;17.40;;;;;;;10.22;100.00;101837.72;4954410;29;20443;-43
2023/05/24 02:38:25;;;;;;;41.13;16.47;;;;;;;10.19;100.00;101839.88;4954359;29;20444;-43
2023/05/24 02:40:53;;;;;;;44.43;15.90;;;;;;;10.24;100.00;101850.91;4953746;28;20472;-41
2023/05/24 02:43:20;;;;;;;37.57;13.63;;;;;;;10.21;100.00;101844.06;4953717;28;20539;-43
2023/05/24 02:45:48;;;;;;;33.30;14.17;;;;;;;10.22;100.00;101837.72;4954107;29;20439;-42
2023/05/24 02:48:16;;;;;;;43.80;16.20;;;;;;;10.28;100.00;101846.88;4953957;29;20432;-43
2023/05/24 02:50:45;;;;;;;41.83;15.60;;;;;;;10.25;100.00;101842.72;4953606;28;20467;-42
2023/05/24 02:53:13;;;;;;;43.20;15.93;;;;;;;10.24;100.00;101843.75;4953862;29;20510;-43
2023/05/24 02:55:42;;;;;;;37.17;13.63;;;;;;;10.23;100.00;101843.91;4953878;29;20523;-44
2023/05/24 02:58:10;;;;;;;45.77;16.70;;;;;;;10.27;100.00;101837.25;4954048;29;21088;-45
2023/05/24 03:00:38;;;;;;;40.90;16.17;;;;;;;10.29;100.00;101840.56;4953601;28;20464;-43
2023/05/24 03:03:06;;;;;;;36.47;15.70;;;;;;;10.26;100.00;101844.41;4949561;29;20468;-43
2023/05/24 03:05:34;;;;;;;40.00;17.60;;;;;;;10.16;100.00;101853.53;4934932;29;20460;-43
2023/05/24 03:08:03;;;;;;;38.47;14.40;;;;;;;10.17;100.00;101842.72;4934670;29;20437;-42
2023/05/24 03:10:31;;;;;;;40.03;16.63;;;;;;;10.20;100.00;101837.06;4933470;28;20472;-43
2023/05/24 03:12:59;;;;;;;44.00;15.20;;;;;;;10.27;100.00;101847.91;4934474;29;20986;-41
2023/05/24 03:15:26;;;;;;;46.20;15.57;;;;;;;10.21;100.00;101851.22;4934724;29;20433;-44
2023/05/24 03:17:55;;;;;;;39.33;16.17;;;;;;;10.19;100.00;101846.06;4934535;29;20935;-41
2023/05/24 03:20:23;;;;;;;39.07;13.93;;;;;;;10.19;100.00;101847.88;4934106;28;20460;-45
2023/05/24 03:22:51;;;;;;;36.13;15.43;;;;;;;10.18;100.00;101844.41;4932909;29;20433;-42
2023/05/24 03:25:20;;;;;;;34.03;15.20;;;;;;;10.24;100.00;101853.56;4933598;29;20593;-47
2023/05/24 03:27:48;;;;;;;31.93;15.00;;;;;;;10.27;100.00;101861.22;4949330;29;20523;-41
2023/05/24 03:30:16;;;;;;;42.77;15.90;;;;;;;10.30;100.00;101858.22;4953033;28;20590;-43
2023/05/24 03:32:43;;;;;;;52.23;15.03;;;;;;;10.27;100.00;101861.22;4953387;29;20507;-42
2023/05/24 03:35:11;;;;;;;45.90;16.30;;;;;;;10.33;100.00;101855.22;4953415;29;20467;-42
2023/05/24 03:37:39;;;;;;;46.67;13.93;;;;;;;10.34;100.00;101849.72;4953472;28;20502;-42
2023/05/24 03:40:08;;;;;;;37.03;15.40;;;;;;;10.36;100.00;101857.56;4953023;28;20976;-45
2023/05/24 03:42:37;;;;;;;38.20;16.27;;;;;;;10.36;100.00;101853.03;4953482;29;20431;-47
2023/05/24 03:45:06;;;;;;;31.30;14.07;;;;;;;10.43;100.00;101858.53;4953328;29;20459;-42
2023/05/24 03:47:34;;;;;;;33.83;15.53;;;;;;;10.41;100.00;101860.53;4953446;29;20479;-45
2023/05/24 03:50:01;;;;;;;35.40;15.37;;;;;;;10.43;100.00;101861.19;4952945;28;20625;-43
2023/05/24 03:52:29;;;;;;;42.90;14.03;;;;;;;10.37;100.00;101856.53;4953184;29;20539;-43
2023/05/24 03:54:57;;;;;;;31.33;13.30;;;;;;;10.37;100.00;101868.03;4953568;28;20580;-44
2023/05/24 03:57:25;;;;;;;30.67;14.77;;;;;;;10.38;100.00;101867.06;4953469;29;20851;-44
2023/05/24 03:59:54;;;;;;;32.43;14.37;;;;;;;10.41;100.00;101877.38;4953395;29;20604;-43
2023/05/24 04:02:22;;;;;;;37.83;16.87;;;;;;;10.41;100.00;101884.53;4952636;28;20467;-43
2023/05/24 04:04:50;;;;;;;40.83;17.03;;;;;;;10.43;100.00;101880.69;4953147;29;20514;-43
2023/05/24 04:07:18;;;;;;;41.27;15.37;;;;;;;10.44;100.00;101873.53;4953332;29;20435;-43
2023/05/24 04:09:46;;;;;;;39.83;14.67;;;;;;;10.50;100.00;101876.38;4953291;29;20432;-42
2023/05/24 04:12:14;;;;;;;36.00;15.20;;;;;;;10.48;100.00;101883.69;4952600;28;20518;-42
2023/05/24 04:14:41;;;;;;;43.53;15.10;;;;;;;10.49;100.00;101884.53;4953058;29;20566;-43
2023/05/24 04:17:11;;;;;;;47.17;15.67;;;;;;;10.57;100.00;101891.72;4953077;29;20454;-44
2023/05/24 04:19:38;;;;;;;47.07;15.97;;;;;;;10.61;100.00;101893.84;4953153;29;21111;-41
2023/05/24 04:22:06;;;;;;;38.00;15.97;;;;;;;10.57;100.00;101889.03;4953659;28;20469;-43
2023/05/24 04:24:34;;;;;;;36.13;15.03;;;;;;;10.66;100.00;101896.88;4956559;29;20462;-43
2023/05/24 04:27:02;;;;;;;37.23;15.40;;;;;;;10.74;100.00;101888.84;4956173;28;20443;-43
2023/05/24 04:29:32;;;;;;;38.20;16.00;;;;;;;10.82;100.00;101891.47;4956306;29;20447;-44
2023/05/24 04:32:00;;;;;;;57.47;16.20;;;;;;;10.79;100.00;101890.97;4956022;28;20467;-42
2023/05/24 04:34:32;;;;;;;35.80;15.17;;;;;;;10.82;100.00;101890.66;4956484;28;20479;-43
2023/05/24 04:37:00;;;;;;;37.63;16.30;;;;;;;10.84;100.00;101897.47;4956501;28;20436;-42
2023/05/24 04:39:30;;;;;;;40.63;15.17;;;;;;;10.79;100.00;101893.66;4956377;29;20435;-43
2023/05/24 04:41:59;;;;;;;36.63;14.80;;;;;;;10.83;100.00;101895.81;4955766;28;20588;-42
2023/05/24 04:44:27;;;;;;;39.03;16.00;;;;;;;10.85;100.00;101898.31;4956070;29;20467;-42
2023/05/24 04:46:55;;;;;;;44.00;15.30;;;;;;;10.87;100.00;101896.31;4956335;29;20435;-43
2023/05/24 04:49:22;;;;;;;36.73;14.03;;;;;;;10.91;100.00;101900.28;4956083;28;20444;-44
2023/05/24 04:51:51;;;;;;;46.83;16.20;;;;;;;10.92;100.00;101901.97;4955278;28;20474;-42
2023/05/24 04:54:21;;;;;;;35.30;15.60;;;;;;;10.86;100.00;101900.81;4955835;29;20484;-44
2023/05/24 04:56:49;;;;;;;42.07;16.00;;;;;;;10.95;100.00;101907.81;4955801;29;20491;-43
2023/05/24 04:59:17;;;;;;;37.80;16.40;;;;;;;10.98;100.00;101904.81;4956024;28;20432;-42
2023/05/24 05:01:45;;;;;;;41.90;17.07;;;;;;;10.92;100.00;101904.66;4955392;28;20894;-42
2023/05/24 05:04:12;;;;;;;48.60;15.93;;;;;;;10.97;100.00;101904.94;4955709;29;20520;-42
2023/05/24 05:06:42;;;;;;;47.27;17.00;;;;;;;10.95;100.00;101912.31;4955897;28;20806;-42
2023/05/24 05:09:12;;;;;;;57.70;16.97;;;;;;;10.93;100.00;101917.00;4955561;29;20455;-41
2023/05/24 05:11:40;;;;;;;43.10;16.33;;;;;;;10.93;100.00;101923.13;4955244;28;20889;-42
2023/05/24 05:14:08;;;;;;;42.67;17.33;;;;;;;10.95;100.00;101928.31;4955560;29;20849;-42
2023/05/24 05:16:36;;;;;;;50.23;18.83;;;;;;;10.94;100.00;101926.66;4955592;29;20958;-43
2023/05/24 05:19:05;;;;;;;37.20;17.00;;;;;;;10.98;100.00;101930.66;4955618;29;20428;-43
2023/05/24 05:21:35;;;;;;;43.20;17.20;;;;;;;11.02;100.00;101935.47;4954812;28;20835;-45
2023/05/24 05:24:03;;;;;;;33.93;16.73;;;;;;;11.03;100.00;101938.97;4955766;29;20870;-45
2023/05/24 05:26:33;;;;;;;42.80;18.40;;;;;;;11.13;100.00;101942.28;4955157;29;20490;-46
2023/05/24 05:29:01;;;;;;;47.87;18.30;;;;;;;11.22;100.00;101935.94;4955467;29;20854;-43
2023/05/24 05:31:29;;;;;;;44.57;17.37;;;;;;;11.26;100.00;101939.09;4954811;28;20993;-43
2023/05/24 05:33:57;;;;;;;55.23;17.70;;;;;;;11.33;100.00;101942.72;4954542;28;20475;-41
2023/05/24 05:36:25;;;;;;;47.83;17.53;;;;;;;11.31;100.00;101948.25;4955124;29;20487;-43
2023/05/24 05:38:53;;;;;;;47.60;17.27;;;;;;;11.19;100.00;101949.63;4955450;29;20542;-45
2023/05/24 05:41:21;;;;;;;43.63;17.97;;;;;;;11.24;100.00;101947.25;4954638;28;20542;-43
2023/05/24 05:43:50;;;;;;;36.03;15.73;;;;;;;11.25;100.00;101945.44;4954892;28;20483;-43
2023/05/24 05:46:19;;;;;;;47.97;18.73;;;;;;;11.32;100.00;101957.91;4955144;29;21009;-43
2023/05/24 05:48:48;;;;;;;43.37;15.97;;;;;;;11.42;100.00;101960.38;4954979;28;20523;-43
2023/05/24 05:51:16;;;;;;;45.40;16.17;;;;;;;11.39;100.00;101958.06;4954531;28;21005;-42
2023/05/24 05:53:43;;;;;;;48.53;18.03;;;;;;;11.35;100.00;101964.78;4954812;29;20574;-43
2023/05/24 05:56:11;;;;;;;38.63;16.70;;;;;;;11.29;100.00;101968.13;4954884;29;20850;-46
2023/05/24 05:58:40;;;;;;;45.67;17.33;;;;;;;11.30;100.00;101970.59;4954779;29;20518;-43
2023/05/24 06:01:09;;;;;;;33.13;16.47;;;;;;;11.33;100.00;101974.78;4954513;28;20829;-42
2023/05/24 06:03:36;;;;;;;40.00;16.60;;;;;;;11.36;100.00;101977.94;4954314;29;21053;-43
2023/05/24 06:06:04;;;;;;;39.70;16.80;;;;;;;11.35;100.00;101984.28;4954915;29;20463;-42
2023/05/24 06:08:33;;;;;;;46.20;14.70;;;;;;;11.26;100.00;101984.50;4954665;29;20527;-44
2023/05/24 06:11:02;;;;;;;42.17;15.70;;;;;;;11.21;100.00;101993.00;4954184;28;20993;-44
2023/05/24 06:13:30;;;;;;;47.03;17.30;;;;;;;11.24;100.00;101995.31;4954299;29;20547;-44
2023/05/24 06:15:59;;;;;;;48.10;17.80;;;;;;;11.22;100.00;102007.19;4954366;28;20849;-44
2023/05/24 06:18:31;;;;;;;40.30;16.23;;;;;;;11.25;100.00;102005.00;4954907;28;20788;-41
2023/05/24 06:20:59;;;;;;;41.37;16.50;;;;;;;11.24;100.00;102006.00;4951966;28;20475;-43
2023/05/24 06:23:26;;;;;;;49.70;18.60;;;;;;;11.19;100.00;102011.03;4954206;29;20455;-43
2023/05/24 06:25:54;;;;;;;58.73;17.40;;;;;;;11.23;100.00;102017.69;4954217;29;20578;-46
2023/05/24 06:28:22;;;;;;;43.97;16.03;;;;;;;11.36;100.00;102017.16;4954494;29;20433;-42
2023/05/24 06:30:50;;;;;;;42.80;15.87;;;;;;;11.45;100.00;102018.81;4953624;28;20992;-45
2023/05/24 06:33:18;;;;;;;39.63;15.80;;;;;;;11.40;100.00;102022.00;4954297;29;20487;-43
2023/05/24 06:35:47;;;;;;;33.70;14.90;;;;;;;11.43;100.00;102013.66;4954111;29;20996;-42
2023/05/24 06:38:16;;;;;;;37.50;15.63;;;;;;;11.43;100.00;102021.66;4954375;29;20450;-42
2023/05/24 06:40:44;;;;;;;32.47;14.10;;;;;;;11.45;100.00;102016.97;4953951;28;20467;-43
2023/05/24 06:43:12;;;;;;;36.53;15.80;;;;;;;11.55;100.00;102017.63;4953820;29;20523;-43
2023/05/24 06:45:40;;;;;;;36.43;15.53;;;;;;;11.62;100.00;102026.59;4953413;28;20812;-43
2023/05/24 06:48:07;;;;;;;38.20;14.90;;;;;;;11.76;100.00;102017.06;4954207;29;20536;-43
2023/05/24 06:50:37;;;;;;;43.30;14.80;;;;;;;11.83;100.00;102025.22;4953667;28;20464;-43
2023/05/24 06:53:10;;;;;;;40.60;16.80;;;;;;;12.09;100.00;102023.09;4953847;28;20419;-43
2023/05/24 06:55:38;;;;;;;32.77;15.70;;;;;;;12.29;100.00;102020.81;4953725;29;20475;-42
2023/05/24 06:58:06;;;;;;;29.00;13.73;;;;;;;12.37;100.00;102026.09;4953773;29;20451;-42
2023/05/24 07:00:34;;;;;;;31.80;14.57;;;;;;;12.43;100.00;102022.72;4953511;28;20827;-43
2023/05/24 07:03:01;;;;;;;26.60;12.67;;;;;;;12.61;100.00;102024.09;4953473;29;20435;-42
2023/05/24 07:05:30;;;;;;;34.03;15.53;;;;;;;12.71;100.00;102021.19;4953801;28;20440;-44
2023/05/24 07:07:57;;;;;;;23.93;12.70;;;;;;;12.81;100.00;102026.28;4953738;29;20531;-43
2023/05/24 07:10:27;;;;;;;29.37;12.77;;;;;;;12.95;100.00;102026.34;4953488;28;20480;-44
2023/05/24 07:12:54;;;;;;;22.43;13.77;;;;;;;13.17;100.00;102030.81;4953637;29;20482;-44
2023/05/24 07:15:22;;;;;;;19.27;14.57;;;;;;;13.17;100.00;102040.72;4953710;29;20492;-43
2023/05/24 07:17:50;;;;;;;24.67;14.80;;;;;;;13.18;100.00;102034.34;4953868;29;20520;-42
2023/05/24 07:20:18;;;;;;;20.17;13.03;;;;;;;13.18;100.00;102034.34;4953200;28;20455;-42
2023/05/24 07:22:46;;;;;;;35.23;15.43;;;;;;;13.34;100.00;102039.56;4953395;29;21016;-43
2023/05/24 07:25:13;;;;;;;26.00;14.97;;;;;;;13.41;100.00;102037.78;4953779;29;20483;-44
2023/05/24 07:27:43;;;;;;;28.93;13.93;;;;;;;13.41;100.00;102037.78;4953395;29;20988;-44
2023/05/24 07:30:11;;;;;;;26.67;14.40;;;;;;;13.54;100.00;102040.66;4953208;28;20838;-43
2023/05/24 07:32:58;;;;;;;29.40;14.20;;;;;;;13.70;100.00;102042.34;4953113;29;20515;-43
2023/05/24 07:35:27;;;;;;;28.80;14.70;;;;;;;13.75;100.00;102053.31;4953345;28;20530;-43
2023/05/24 07:37:55;;;;;;;22.40;13.47;;;;;;;13.76;100.00;102044.28;4953603;29;20435;-43
2023/05/24 07:40:23;;;;;;;19.93;12.20;;;;;;;13.67;100.00;102040.03;4953246;28;20506;-43
2023/05/24 07:42:52;;;;;;;26.33;13.13;;;;;;;13.72;100.00;102045.66;4953333;29;20527;-44
2023/05/24 07:45:20;;;;;;;16.23;12.57;;;;;;;13.66;100.00;102044.56;4953285;29;20479;-43
2023/05/24 07:47:47;;;;;;;23.37;13.30;;;;;;;13.65;100.00;102047.44;4953595;29;20482;-43
2023/05/24 07:50:15;;;;;;;21.07;13.03;;;;;;;13.66;100.00;102049.06;4952957;28;20435;-42
2023/05/24 07:52:44;;;;;;;22.60;13.50;;;;;;;13.70;100.00;102051.22;4953651;29;20930;-42
2023/05/24 07:55:11;;;;;;;25.90;14.27;;;;;;;13.77;100.00;102054.81;4953271;29;20534;-43
2023/05/24 07:57:39;;;;;;;25.80;12.70;;;;;;;13.82;100.00;102051.56;4955512;28;20431;-43
2023/05/24 08:00:13;;;;;;;25.53;13.63;;;;;;;13.73;100.00;102055.38;4956565;28;20511;-42
2023/05/24 08:02:41;;;;;;;25.23;13.50;;;;;;;13.75;100.00;102061.38;4956834;29;20846;-42
2023/05/24 08:05:11;;;;;;;27.40;13.53;;;;;;;13.81;100.00;102061.47;4956683;28;20546;-44
2023/05/24 08:07:40;;;;;;;31.73;13.83;;;;;;;13.61;100.00;102065.72;4957060;29;20533;-43
2023/05/24 08:10:11;;;;;;;33.00;14.50;;;;;;;13.56;100.00;102070.78;4956377;28;20432;-43
2023/05/24 08:12:39;;;;;;;31.93;14.40;;;;;;;13.56;100.00;102073.47;4956868;28;20810;-44
2023/05/24 08:15:09;;;;;;;26.00;13.83;;;;;;;13.64;100.00;102070.72;4956653;29;20530;-44
2023/05/24 08:17:38;;;;;;;23.97;11.70;;;;;;;13.59;100.00;102065.06;4956822;29;20527;-43
2023/05/24 08:20:07;;;;;;;26.03;15.87;;;;;;;13.58;100.00;102070.63;4956300;28;20439;-43
2023/05/24 08:22:36;;;;;;;26.70;14.17;;;;;;;13.64;100.00;102072.56;4956784;29;20443;-43
2023/05/24 08:25:04;;;;;;;25.50;15.97;;;;;;;13.68;100.00;102080.03;4956388;28;20881;-43
2023/05/24 08:27:32;;;;;;;28.23;13.70;;;;;;;13.60;100.00;102088.19;4956060;29;20961;-42
2023/05/24 08:30:02;;;;;;;29.43;14.63;;;;;;;13.53;100.00;102089.09;4956582;29;20539;-43
2023/05/24 08:32:32;;;;;;;36.93;15.93;;;;;;;13.47;100.00;102087.97;4946454;29;20463;-44
2023/05/24 08:34:59;;;;;;;33.10;16.40;;;;;;;13.35;100.00;102094.78;4956250;29;20452;-42
2023/05/24 08:37:46;;;;;;;33.40;15.87;;;;;;;13.50;100.00;102092.97;4956577;28;20763;-42
2023/05/24 08:40:13;;;;;;;22.63;13.60;;;;;;;13.72;100.00;102086.72;4956127;28;20789;-45
2023/05/24 08:42:42;;;;;;;23.47;14.53;;;;;;;13.93;100.00;102094.00;4956408;29;20460;-43
2023/05/24 08:45:12;;;;;;;19.50;14.53;;;;;;;14.03;100.00;102091.88;4956115;29;20455;-43
2023/05/24 08:47:42;;;;;;;23.80;13.77;;;;;;;14.31;100.00;102098.22;4956183;29;20431;-43
2023/05/24 08:50:11;;;;;;;22.83;15.07;;;;;;;14.38;100.00;102095.66;4956095;28;20442;-42
2023/05/24 08:52:40;;;;;;;30.40;16.43;;;;;;;14.57;100.00;102097.72;4955657;28;20456;-42
2023/05/24 08:55:09;;;;;;;24.37;14.73;;;;;;;14.66;100.00;102099.28;4956219;29;20547;-44
2023/05/24 08:57:38;;;;;;;20.50;14.30;;;;;;;14.54;100.00;102103.47;4955869;29;20442;-41
2023/05/24 09:00:09;;;;;;;21.73;15.33;;;;;;;14.65;100.00;102105.66;4955407;28;20444;-46
2023/05/24 09:02:38;;;;;;;28.80;15.17;;;;;;;14.62;100.00;102102.53;4955767;29;20998;-43
2023/05/24 09:05:10;;;;;;;24.73;14.00;;;;;;;14.71;100.00;102107.59;4955637;29;20905;-42
2023/05/24 09:07:38;;;;;;;25.00;13.77;;;;;;;14.98;100.00;102103.31;4955805;28;20436;-43
2023/05/24 09:10:08;;;;;;;26.23;15.07;;;;;;;15.46;100.00;102097.09;4954437;28;20946;-41
2023/05/24 09:12:37;;;;;;;28.47;13.73;;;;;;;15.86;100.00;102095.53;4955559;29;20439;-43
2023/05/24 09:15:08;;;;;;;23.97;15.10;;;;;;;16.02;100.00;102097.91;4955471;29;20462;-44
2023/05/24 09:17:36;;;;;;;28.57;15.83;;;;;;;16.22;100.00;102097.16;4955507;29;20977;-46
2023/05/24 09:20:09;;;;;;;19.97;13.37;;;;;;;16.89;100.00;102102.56;4955226;28;20443;-43
2023/05/24 09:22:38;;;;;;;20.70;12.63;;;;;;;17.31;100.00;102104.03;4955289;29;20491;-43
2023/05/24 09:25:09;;;;;;;20.50;12.57;;;;;;;17.35;100.00;102099.91;4955365;29;20527;-44
2023/05/24 09:27:37;;;;;;;28.53;12.80;;;;;;;17.11;100.00;102094.06;4955328;29;20998;-43
2023/05/24 09:30:09;;;;;;;15.27;12.00;;;;;;;17.11;100.00;102099.47;4955063;28;20431;-43
2023/05/24 09:32:37;;;;;;;17.90;11.87;;;;;;;16.62;100.00;102098.16;4955221;29;20454;-43
2023/05/24 09:35:09;;;;;;;21.97;12.30;;;;;;;16.75;100.00;102104.41;4955300;29;20467;-43
2023/05/24 09:37:39;;;;;;;14.53;11.40;;;;;;;16.99;100.00;102108.38;4955020;29;20479;-45
2023/05/24 09:40:17;;;;;;;19.40;12.70;;;;;;;16.94;100.00;102103.59;4954583;28;20440;-47
2023/05/24 09:42:45;;;;;;;23.73;12.43;;;;;;;16.93;100.00;102103.81;4954805;29;20471;-43
2023/05/24 09:45:13;;;;;;;17.03;11.40;;;;;;;17.28;100.00;102112.53;4954938;29;20466;-45
2023/05/24 09:47:42;;;;;;;15.07;11.07;;;;;;;17.54;100.00;102099.03;4955010;29;20490;-44
2023/05/24 09:50:16;;;;;;;16.57;10.80;;;;;;;17.25;100.00;102097.59;4954885;28;20441;-47
2023/05/24 09:52:45;;;;;;;18.57;11.30;;;;;;;17.50;100.00;102100.50;4954638;29;20495;-42
2023/05/24 09:55:14;;;;;;;18.63;11.20;;;;;;;17.60;100.00;102093.66;4954958;28;20456;-42
2023/05/24 09:57:43;;;;;;;16.17;10.37;;;;;;;17.26;100.00;102103.84;4955081;29;20562;-43
2023/05/24 10:00:16;;;;;;;13.60;10.57;;;;;;;17.11;100.00;102102.16;4954755;28;20858;-43
2023/05/24 10:02:45;;;;;;;19.47;10.03;;;;;;;17.44;100.00;102096.75;4954762;28;20514;-43
2023/05/24 10:05:22;;;;;;;15.53;10.20;;;;;;;17.35;100.00;102097.19;4954829;29;20841;-43
2023/05/24 10:07:50;;;;;;;11.17;9.87;;;;;;;17.96;100.00;102106.66;4954488;28;20924;-42
2023/05/24 10:10:18;;;;;;;13.60;9.70;;;;;;;18.21;100.00;102104.09;4954279;28;20466;-42
2023/05/24 10:12:46;;;;;;;12.93;10.13;;;;;;;18.43;100.00;102105.44;4954517;29;20431;-45
2023/05/24 10:15:15;;;;;;;17.03;9.70;;;;;;;18.28;100.00;102099.47;4954703;29;21235;-42
2023/05/24 10:17:43;;;;;;;15.87;11.23;;;;;;;18.71;100.00;102097.84;4954537;29;20522;-43
2023/05/24 10:20:12;;;;;;;15.57;11.30;;;;;;;19.00;100.00;102106.38;4953925;28;20458;-44
2023/05/24 10:22:44;;;;;;;12.67;9.97;;;;;;;19.32;100.00;102111.50;4954109;29;20439;-43
2023/05/24 10:25:17;;;;;;;11.90;8.50;;;;;;;19.39;95.29;102108.78;4954489;29;20816;-42
2023/05/24 10:27:47;;;;;;;14.43;10.43;;;;;;;19.56;98.44;102115.28;4953771;29;20428;-41
2023/05/24 10:30:24;;;;;;;12.53;10.17;;;;;;;19.96;100.00;102104.88;4954101;28;20516;-43
2023/05/24 10:32:55;;;;;;;16.23;11.37;;;;;;;20.16;89.55;102104.66;4954037;29;20498;-43
2023/05/24 10:35:26;;;;;;;17.23;12.10;;;;;;;19.78;93.10;102108.41;4954222;29;20526;-43
2023/05/24 10:37:56;;;;;;;14.53;11.30;;;;;;;19.81;99.44;102107.97;4954172;28;20510;-43
2023/05/24 10:40:25;;;;;;;18.10;11.87;;;;;;;20.66;100.00;102099.84;4953749;28;20463;-46
2023/05/24 10:42:53;;;;;;;21.20;11.13;;;;;;;20.54;91.16;102099.00;4953972;29;20435;-43
2023/05/24 10:45:34;;;;;;;20.47;10.17;;;;;;;20.39;97.38;102104.81;4954080;29;20482;-43
2023/05/24 10:48:10;;;;;;;15.70;11.57;;;;;;;20.07;95.37;102093.28;4954173;29;20842;-42
2023/05/24 10:50:38;;;;;;;20.70;11.40;;;;;;;20.81;100.00;102105.69;4951394;28;20476;-45
2023/05/24 10:53:14;;;;;;;19.27;12.53;;;;;;;21.28;88.05;102098.50;4953682;29;21001;-43
2023/05/24 10:55:53;;;;;;;17.80;11.17;;;;;;;21.56;87.89;102100.53;4949420;29;20507;-42
2023/05/24 10:58:23;;;;;;;22.00;12.63;;;;;;;21.18;78.98;102104.50;4953679;29;20542;-44
2023/05/24 11:00:52;;;;;;;14.60;11.00;;;;;;;20.70;83.29;102101.88;4946503;28;20514;-42
2023/05/24 11:03:23;;;;;;;15.00;11.33;;;;;;;20.39;88.99;102102.94;4953293;29;20467;-43
2023/05/24 11:05:54;;;;;;;16.97;10.43;;;;;;;20.22;88.19;102103.75;4954164;28;20474;-42
2023/05/24 11:08:25;;;;;;;18.07;10.33;;;;;;;19.80;88.75;102103.59;4954210;29;20431;-48
2023/05/24 11:11:04;;;;;;;15.67;10.77;;;;;;;19.67;88.21;102105.63;4953314;28;20467;-43